sensor_id;sensor_type;location;lat;lon;timestamp;P1;durP1;ratioP1;P2;durP2;ratioP2
44832;SDS011;30569;51.252;9.830;2023-09-30T00:01:57;13.70;;;3.72;;
44832;SDS011;30569;51.252;9.830;2023-09-30T00:04:23;12.38;;;3.50;;
44832;SDS011;30569;51.252;9.830;2023-09-30T00:06:49;12.60;;;3.05;;
44832;SDS011;30569;51.252;9.830;2023-09-30T00:09:14;9.43;;;3.20;;
44832;SDS011;30569;51.252;9.830;2023-09-30T00:11:40;9.55;;;3.13;;
44832;SDS011;30569;51.252;9.830;2023-09-30T00:14:05;8.52;;;3.15;;
44832;SDS011;30569;51.252;9.830;2023-09-30T00:16:32;13.35;;;3.50;;
44832;SDS011;30569;51.252;9.830;2023-09-30T00:18:57;14.65;;;3.47;;
44832;SDS011;30569;51.252;9.830;2023-09-30T00:21:23;9.35;;;3.45;;
44832;SDS011;30569;51.252;9.830;2023-09-30T00:23:49;12.35;;;3.78;;
44832;SDS011;30569;51.252;9.830;2023-09-30T00:26:15;11.80;;;3.00;;
44832;SDS011;30569;51.252;9.830;2023-09-30T00:28:40;10.45;;;2.97;;
44832;SDS011;30569;51.252;9.830;2023-09-30T00:31:07;13.73;;;3.85;;
44832;SDS011;30569;51.252;9.830;2023-09-30T00:33:36;12.57;;;3.47;;
44832;SDS011;30569;51.252;9.830;2023-09-30T00:36:05;10.23;;;3.42;;
44832;SDS011;30569;51.252;9.830;2023-09-30T00:38:32;11.57;;;3.17;;
44832;SDS011;30569;51.252;9.830;2023-09-30T00:40:58;12.65;;;3.30;;
44832;SDS011;30569;51.252;9.830;2023-09-30T00:43:24;13.38;;;3.47;;
44832;SDS011;30569;51.252;9.830;2023-09-30T00:45:51;11.60;;;3.42;;
44832;SDS011;30569;51.252;9.830;2023-09-30T00:48:26;11.55;;;3.35;;
44832;SDS011;30569;51.252;9.830;2023-09-30T00:50:52;13.82;;;3.42;;
44832;SDS011;30569;51.252;9.830;2023-09-30T00:53:18;8.80;;;3.35;;
44832;SDS011;30569;51.252;9.830;2023-09-30T00:55:43;15.48;;;3.80;;
44832;SDS011;30569;51.252;9.830;2023-09-30T00:58:10;10.23;;;3.50;;
44832;SDS011;30569;51.252;9.830;2023-09-30T01:00:36;14.10;;;3.70;;
44832;SDS011;30569;51.252;9.830;2023-09-30T01:03:03;10.38;;;4.22;;
44832;SDS011;30569;51.252;9.830;2023-09-30T01:05:30;11.52;;;2.90;;
44832;SDS011;30569;51.252;9.830;2023-09-30T01:07:55;11.15;;;3.05;;
44832;SDS011;30569;51.252;9.830;2023-09-30T01:10:21;14.10;;;4.05;;
44832;SDS011;30569;51.252;9.830;2023-09-30T01:12:47;10.68;;;2.85;;
44832;SDS011;30569;51.252;9.830;2023-09-30T01:15:13;11.38;;;3.42;;
44832;SDS011;30569;51.252;9.830;2023-09-30T01:17:39;12.13;;;4.65;;
44832;SDS011;30569;51.252;9.830;2023-09-30T01:20:05;14.70;;;4.47;;
44832;SDS011;30569;51.252;9.830;2023-09-30T01:22:32;12.90;;;3.83;;
44832;SDS011;30569;51.252;9.830;2023-09-30T01:24:58;19.23;;;3.50;;
44832;SDS011;30569;51.252;9.830;2023-09-30T01:27:23;13.40;;;4.07;;
44832;SDS011;30569;51.252;9.830;2023-09-30T01:29:50;11.88;;;3.42;;
44832;SDS011;30569;51.252;9.830;2023-09-30T01:32:16;9.75;;;3.13;;
44832;SDS011;30569;51.252;9.830;2023-09-30T01:34:41;12.63;;;3.92;;
44832;SDS011;30569;51.252;9.830;2023-09-30T01:37:07;11.63;;;3.40;;
44832;SDS011;30569;51.252;9.830;2023-09-30T01:39:32;15.73;;;4.18;;
44832;SDS011;30569;51.252;9.830;2023-09-30T01:41:58;18.50;;;3.90;;
44832;SDS011;30569;51.252;9.830;2023-09-30T01:44:24;11.70;;;2.97;;
44832;SDS011;30569;51.252;9.830;2023-09-30T01:46:50;12.80;;;3.72;;
44832;SDS011;30569;51.252;9.830;2023-09-30T01:49:16;12.20;;;3.65;;
44832;SDS011;30569;51.252;9.830;2023-09-30T01:51:43;10.50;;;3.70;;
44832;SDS011;30569;51.252;9.830;2023-09-30T01:54:09;16.27;;;4.50;;
44832;SDS011;30569;51.252;9.830;2023-09-30T01:56:35;12.75;;;4.70;;
44832;SDS011;30569;51.252;9.830;2023-09-30T01:59:01;14.48;;;3.53;;
44832;SDS011;30569;51.252;9.830;2023-09-30T02:01:27;10.27;;;3.10;;
44832;SDS011;30569;51.252;9.830;2023-09-30T02:03:52;11.60;;;3.97;;
44832;SDS011;30569;51.252;9.830;2023-09-30T02:06:18;15.38;;;3.67;;
44832;SDS011;30569;51.252;9.830;2023-09-30T02:08:44;8.50;;;3.28;;
44832;SDS011;30569;51.252;9.830;2023-09-30T02:11:11;10.88;;;3.58;;
44832;SDS011;30569;51.252;9.830;2023-09-30T02:13:38;11.40;;;3.28;;
44832;SDS011;30569;51.252;9.830;2023-09-30T02:16:04;11.68;;;3.17;;
44832;SDS011;30569;51.252;9.830;2023-09-30T02:18:30;10.23;;;3.58;;
44832;SDS011;30569;51.252;9.830;2023-09-30T02:20:57;10.75;;;3.40;;
44832;SDS011;30569;51.252;9.830;2023-09-30T02:23:24;9.70;;;3.40;;
44832;SDS011;30569;51.252;9.830;2023-09-30T02:25:50;18.85;;;3.83;;
44832;SDS011;30569;51.252;9.830;2023-09-30T02:28:16;11.88;;;3.78;;
44832;SDS011;30569;51.252;9.830;2023-09-30T02:30:42;10.55;;;3.22;;
44832;SDS011;30569;51.252;9.830;2023-09-30T02:33:08;13.48;;;4.75;;
44832;SDS011;30569;51.252;9.830;2023-09-30T02:35:34;12.18;;;3.53;;
44832;SDS011;30569;51.252;9.830;2023-09-30T02:38:00;12.50;;;3.70;;
44832;SDS011;30569;51.252;9.830;2023-09-30T02:40:25;14.40;;;4.03;;
44832;SDS011;30569;51.252;9.830;2023-09-30T02:42:51;11.32;;;4.28;;
44832;SDS011;30569;51.252;9.830;2023-09-30T02:45:17;11.68;;;4.05;;
44832;SDS011;30569;51.252;9.830;2023-09-30T02:47:43;13.35;;;3.90;;
44832;SDS011;30569;51.252;9.830;2023-09-30T02:50:09;21.98;;;3.95;;
44832;SDS011;30569;51.252;9.830;2023-09-30T02:52:38;11.20;;;3.95;;
44832;SDS011;30569;51.252;9.830;2023-09-30T02:55:06;16.33;;;3.60;;
44832;SDS011;30569;51.252;9.830;2023-09-30T02:57:32;12.35;;;3.63;;
44832;SDS011;30569;51.252;9.830;2023-09-30T02:59:58;13.63;;;3.65;;
44832;SDS011;30569;51.252;9.830;2023-09-30T03:02:25;13.68;;;5.47;;
44832;SDS011;30569;51.252;9.830;2023-09-30T03:04:51;12.70;;;3.65;;
44832;SDS011;30569;51.252;9.830;2023-09-30T03:07:18;8.88;;;3.03;;
44832;SDS011;30569;51.252;9.830;2023-09-30T03:09:44;11.07;;;3.42;;
44832;SDS011;30569;51.252;9.830;2023-09-30T03:12:11;11.13;;;3.58;;
44832;SDS011;30569;51.252;9.830;2023-09-30T03:14:37;8.93;;;3.03;;
44832;SDS011;30569;51.252;9.830;2023-09-30T03:17:03;9.40;;;2.95;;
44832;SDS011;30569;51.252;9.830;2023-09-30T03:19:28;7.88;;;3.28;;
44832;SDS011;30569;51.252;9.830;2023-09-30T03:21:54;10.38;;;3.40;;
44832;SDS011;30569;51.252;9.830;2023-09-30T03:24:19;8.50;;;3.25;;
44832;SDS011;30569;51.252;9.830;2023-09-30T03:26:46;14.00;;;3.28;;
44832;SDS011;30569;51.252;9.830;2023-09-30T03:29:12;11.75;;;3.75;;
44832;SDS011;30569;51.252;9.830;2023-09-30T03:31:38;11.95;;;3.88;;
44832;SDS011;30569;51.252;9.830;2023-09-30T03:34:05;12.75;;;3.83;;
44832;SDS011;30569;51.252;9.830;2023-09-30T03:36:31;11.98;;;3.70;;
44832;SDS011;30569;51.252;9.830;2023-09-30T03:38:57;11.20;;;3.70;;
44832;SDS011;30569;51.252;9.830;2023-09-30T03:41:29;14.20;;;4.18;;
44832;SDS011;30569;51.252;9.830;2023-09-30T03:43:56;15.63;;;3.85;;
44832;SDS011;30569;51.252;9.830;2023-09-30T03:46:22;9.88;;;3.40;;
44832;SDS011;30569;51.252;9.830;2023-09-30T03:48:47;10.95;;;4.72;;
44832;SDS011;30569;51.252;9.830;2023-09-30T03:51:13;10.80;;;4.40;;
44832;SDS011;30569;51.252;9.830;2023-09-30T03:53:43;10.55;;;3.35;;
44832;SDS011;30569;51.252;9.830;2023-09-30T03:56:09;7.07;;;3.20;;
44832;SDS011;30569;51.252;9.830;2023-09-30T03:58:39;15.38;;;3.80;;
44832;SDS011;30569;51.252;9.830;2023-09-30T04:01:09;14.80;;;3.47;;
44832;SDS011;30569;51.252;9.830;2023-09-30T04:03:38;12.15;;;3.60;;
44832;SDS011;30569;51.252;9.830;2023-09-30T04:06:04;12.02;;;4.18;;
44832;SDS011;30569;51.252;9.830;2023-09-30T04:08:31;11.50;;;3.47;;
44832;SDS011;30569;51.252;9.830;2023-09-30T04:10:58;13.50;;;3.63;;
44832;SDS011;30569;51.252;9.830;2023-09-30T04:13:24;9.85;;;3.70;;
44832;SDS011;30569;51.252;9.830;2023-09-30T04:15:50;13.13;;;3.60;;
44832;SDS011;30569;51.252;9.830;2023-09-30T04:18:16;11.93;;;3.67;;
44832;SDS011;30569;51.252;9.830;2023-09-30T04:20:45;9.32;;;3.72;;
44832;SDS011;30569;51.252;9.830;2023-09-30T04:23:11;10.70;;;3.70;;
44832;SDS011;30569;51.252;9.830;2023-09-30T04:25:38;10.98;;;3.20;;
44832;SDS011;30569;51.252;9.830;2023-09-30T04:28:05;10.18;;;3.30;;
44832;SDS011;30569;51.252;9.830;2023-09-30T04:30:32;14.98;;;4.30;;
44832;SDS011;30569;51.252;9.830;2023-09-30T04:33:01;11.20;;;4.00;;
44832;SDS011;30569;51.252;9.830;2023-09-30T04:35:29;12.75;;;4.65;;
44832;SDS011;30569;51.252;9.830;2023-09-30T04:37:56;13.55;;;4.32;;
44832;SDS011;30569;51.252;9.830;2023-09-30T04:40:26;11.32;;;3.35;;
44832;SDS011;30569;51.252;9.830;2023-09-30T04:42:52;13.32;;;3.72;;
44832;SDS011;30569;51.252;9.830;2023-09-30T04:45:20;10.32;;;3.05;;
44832;SDS011;30569;51.252;9.830;2023-09-30T04:47:47;12.50;;;3.25;;
44832;SDS011;30569;51.252;9.830;2023-09-30T04:50:14;13.98;;;3.42;;
44832;SDS011;30569;51.252;9.830;2023-09-30T04:52:40;12.57;;;3.80;;
44832;SDS011;30569;51.252;9.830;2023-09-30T04:55:06;15.35;;;4.05;;
44832;SDS011;30569;51.252;9.830;2023-09-30T04:57:31;12.30;;;3.70;;
44832;SDS011;30569;51.252;9.830;2023-09-30T04:59:58;12.45;;;3.70;;
44832;SDS011;30569;51.252;9.830;2023-09-30T05:02:24;9.77;;;3.88;;
44832;SDS011;30569;51.252;9.830;2023-09-30T05:04:49;18.02;;;3.80;;
44832;SDS011;30569;51.252;9.830;2023-09-30T05:07:15;25.08;;;5.60;;
44832;SDS011;30569;51.252;9.830;2023-09-30T05:09:41;12.95;;;3.63;;
44832;SDS011;30569;51.252;9.830;2023-09-30T05:12:07;13.00;;;4.65;;
44832;SDS011;30569;51.252;9.830;2023-09-30T05:14:33;11.65;;;3.88;;
44832;SDS011;30569;51.252;9.830;2023-09-30T05:16:59;10.93;;;4.25;;
44832;SDS011;30569;51.252;9.830;2023-09-30T05:19:24;11.02;;;3.75;;
44832;SDS011;30569;51.252;9.830;2023-09-30T05:21:50;13.40;;;3.97;;
44832;SDS011;30569;51.252;9.830;2023-09-30T05:24:16;9.23;;;3.88;;
44832;SDS011;30569;51.252;9.830;2023-09-30T05:26:44;9.32;;;3.60;;
44832;SDS011;30569;51.252;9.830;2023-09-30T05:29:10;12.00;;;4.13;;
44832;SDS011;30569;51.252;9.830;2023-09-30T05:31:35;17.55;;;4.95;;
44832;SDS011;30569;51.252;9.830;2023-09-30T05:34:02;13.02;;;5.15;;
44832;SDS011;30569;51.252;9.830;2023-09-30T05:36:27;11.80;;;4.88;;
44832;SDS011;30569;51.252;9.830;2023-09-30T05:38:54;11.65;;;4.65;;
44832;SDS011;30569;51.252;9.830;2023-09-30T05:41:20;15.05;;;5.65;;
44832;SDS011;30569;51.252;9.830;2023-09-30T05:43:46;11.38;;;4.30;;
44832;SDS011;30569;51.252;9.830;2023-09-30T05:46:12;15.85;;;4.55;;
44832;SDS011;30569;51.252;9.830;2023-09-30T05:48:38;12.75;;;4.38;;
44832;SDS011;30569;51.252;9.830;2023-09-30T05:51:04;10.88;;;4.68;;
44832;SDS011;30569;51.252;9.830;2023-09-30T05:53:31;14.50;;;5.72;;
44832;SDS011;30569;51.252;9.830;2023-09-30T05:55:57;12.90;;;5.00;;
44832;SDS011;30569;51.252;9.830;2023-09-30T05:58:26;11.57;;;5.20;;
44832;SDS011;30569;51.252;9.830;2023-09-30T06:00:52;17.92;;;5.68;;
44832;SDS011;30569;51.252;9.830;2023-09-30T06:03:18;16.73;;;6.20;;
44832;SDS011;30569;51.252;9.830;2023-09-30T06:05:46;11.98;;;4.45;;
44832;SDS011;30569;51.252;9.830;2023-09-30T06:08:13;16.35;;;5.60;;
44832;SDS011;30569;51.252;9.830;2023-09-30T06:10:39;13.23;;;5.25;;
44832;SDS011;30569;51.252;9.830;2023-09-30T06:13:08;16.95;;;5.10;;
44832;SDS011;30569;51.252;9.830;2023-09-30T06:15:39;18.80;;;5.80;;
44832;SDS011;30569;51.252;9.830;2023-09-30T06:18:06;15.88;;;5.32;;
44832;SDS011;30569;51.252;9.830;2023-09-30T06:20:32;13.48;;;5.07;;
44832;SDS011;30569;51.252;9.830;2023-09-30T06:22:58;16.42;;;4.90;;
44832;SDS011;30569;51.252;9.830;2023-09-30T06:25:27;12.05;;;4.38;;
44832;SDS011;30569;51.252;9.830;2023-09-30T06:27:55;10.52;;;4.78;;
44832;SDS011;30569;51.252;9.830;2023-09-30T06:30:21;19.73;;;4.93;;
44832;SDS011;30569;51.252;9.830;2023-09-30T06:32:47;17.30;;;4.97;;
44832;SDS011;30569;51.252;9.830;2023-09-30T06:35:13;16.17;;;4.72;;
44832;SDS011;30569;51.252;9.830;2023-09-30T06:37:40;18.27;;;4.82;;
44832;SDS011;30569;51.252;9.830;2023-09-30T06:40:10;12.27;;;4.50;;
44832;SDS011;30569;51.252;9.830;2023-09-30T06:42:38;11.77;;;4.17;;
44832;SDS011;30569;51.252;9.830;2023-09-30T06:45:06;20.30;;;4.82;;
44832;SDS011;30569;51.252;9.830;2023-09-30T06:47:33;10.27;;;4.30;;
44832;SDS011;30569;51.252;9.830;2023-09-30T06:50:00;15.93;;;4.50;;
44832;SDS011;30569;51.252;9.830;2023-09-30T06:52:32;11.88;;;5.13;;
44832;SDS011;30569;51.252;9.830;2023-09-30T06:55:02;15.73;;;4.38;;
44832;SDS011;30569;51.252;9.830;2023-09-30T06:57:29;13.05;;;4.80;;
44832;SDS011;30569;51.252;9.830;2023-09-30T07:00:06;9.67;;;4.47;;
44832;SDS011;30569;51.252;9.830;2023-09-30T07:02:36;15.80;;;4.32;;
44832;SDS011;30569;51.252;9.830;2023-09-30T07:05:12;12.15;;;3.97;;
44832;SDS011;30569;51.252;9.830;2023-09-30T07:07:39;10.50;;;3.45;;
44832;SDS011;30569;51.252;9.830;2023-09-30T07:10:08;14.07;;;3.92;;
44832;SDS011;30569;51.252;9.830;2023-09-30T07:12:34;16.73;;;3.83;;
44832;SDS011;30569;51.252;9.830;2023-09-30T07:15:03;14.98;;;3.72;;
44832;SDS011;30569;51.252;9.830;2023-09-30T07:17:31;11.80;;;3.50;;
44832;SDS011;30569;51.252;9.830;2023-09-30T07:19:57;14.20;;;3.88;;
44832;SDS011;30569;51.252;9.830;2023-09-30T07:22:22;12.75;;;4.07;;
44832;SDS011;30569;51.252;9.830;2023-09-30T07:24:48;15.82;;;3.45;;
44832;SDS011;30569;51.252;9.830;2023-09-30T07:27:14;12.50;;;4.03;;
44832;SDS011;30569;51.252;9.830;2023-09-30T07:29:39;15.35;;;4.30;;
44832;SDS011;30569;51.252;9.830;2023-09-30T07:32:07;11.50;;;4.47;;
44832;SDS011;30569;51.252;9.830;2023-09-30T07:34:33;14.30;;;3.72;;
44832;SDS011;30569;51.252;9.830;2023-09-30T07:36:59;12.38;;;3.75;;
44832;SDS011;30569;51.252;9.830;2023-09-30T07:39:25;16.00;;;3.75;;
44832;SDS011;30569;51.252;9.830;2023-09-30T07:41:51;12.43;;;3.88;;
44832;SDS011;30569;51.252;9.830;2023-09-30T07:44:17;15.27;;;4.22;;
44832;SDS011;30569;51.252;9.830;2023-09-30T07:46:42;12.35;;;3.95;;
44832;SDS011;30569;51.252;9.830;2023-09-30T07:49:08;13.00;;;3.53;;
44832;SDS011;30569;51.252;9.830;2023-09-30T07:51:35;17.23;;;4.32;;
44832;SDS011;30569;51.252;9.830;2023-09-30T07:54:01;19.77;;;4.45;;
44832;SDS011;30569;51.252;9.830;2023-09-30T07:56:28;13.23;;;4.20;;
44832;SDS011;30569;51.252;9.830;2023-09-30T07:58:54;13.82;;;3.42;;
44832;SDS011;30569;51.252;9.830;2023-09-30T08:01:20;13.50;;;3.90;;
44832;SDS011;30569;51.252;9.830;2023-09-30T08:03:46;13.05;;;3.22;;
44832;SDS011;30569;51.252;9.830;2023-09-30T08:06:12;16.38;;;4.63;;
44832;SDS011;30569;51.252;9.830;2023-09-30T08:08:37;13.57;;;2.97;;
44832;SDS011;30569;51.252;9.830;2023-09-30T08:11:04;11.20;;;3.60;;
44832;SDS011;30569;51.252;9.830;2023-09-30T08:13:30;11.50;;;3.10;;
44832;SDS011;30569;51.252;9.830;2023-09-30T08:15:57;14.43;;;2.95;;
44832;SDS011;30569;51.252;9.830;2023-09-30T08:18:23;12.75;;;2.58;;
44832;SDS011;30569;51.252;9.830;2023-09-30T08:20:49;16.27;;;3.65;;
44832;SDS011;30569;51.252;9.830;2023-09-30T08:23:15;11.38;;;3.40;;
44832;SDS011;30569;51.252;9.830;2023-09-30T08:25:41;13.98;;;3.08;;
44832;SDS011;30569;51.252;9.830;2023-09-30T08:28:07;12.32;;;2.92;;
44832;SDS011;30569;51.252;9.830;2023-09-30T08:30:34;10.38;;;2.63;;
44832;SDS011;30569;51.252;9.830;2023-09-30T08:33:03;12.57;;;2.95;;
44832;SDS011;30569;51.252;9.830;2023-09-30T08:35:29;11.15;;;3.30;;
44832;SDS011;30569;51.252;9.830;2023-09-30T08:37:55;14.60;;;3.00;;
44832;SDS011;30569;51.252;9.830;2023-09-30T08:40:21;11.27;;;3.17;;
44832;SDS011;30569;51.252;9.830;2023-09-30T08:42:53;13.13;;;2.85;;
44832;SDS011;30569;51.252;9.830;2023-09-30T08:45:18;13.00;;;2.63;;
44832;SDS011;30569;51.252;9.830;2023-09-30T08:47:44;14.43;;;3.05;;
44832;SDS011;30569;51.252;9.830;2023-09-30T08:50:11;11.90;;;2.92;;
44832;SDS011;30569;51.252;9.830;2023-09-30T08:52:39;8.40;;;2.80;;
44832;SDS011;30569;51.252;9.830;2023-09-30T08:55:07;14.20;;;2.78;;
44832;SDS011;30569;51.252;9.830;2023-09-30T08:57:33;14.15;;;3.10;;
44832;SDS011;30569;51.252;9.830;2023-09-30T09:00:07;11.20;;;2.40;;
44832;SDS011;30569;51.252;9.830;2023-09-30T09:02:38;12.45;;;2.70;;
44832;SDS011;30569;51.252;9.830;2023-09-30T09:05:04;13.48;;;2.78;;
44832;SDS011;30569;51.252;9.830;2023-09-30T09:07:31;14.35;;;4.20;;
44832;SDS011;30569;51.252;9.830;2023-09-30T09:10:04;10.77;;;2.40;;
44832;SDS011;30569;51.252;9.830;2023-09-30T09:12:36;8.40;;;2.40;;
44832;SDS011;30569;51.252;9.830;2023-09-30T09:15:04;9.55;;;2.70;;
44832;SDS011;30569;51.252;9.830;2023-09-30T09:17:41;10.30;;;2.95;;
44832;SDS011;30569;51.252;9.830;2023-09-30T09:20:08;10.45;;;2.80;;
44832;SDS011;30569;51.252;9.830;2023-09-30T09:22:41;11.77;;;2.30;;
44832;SDS011;30569;51.252;9.830;2023-09-30T09:25:08;9.63;;;2.08;;
44832;SDS011;30569;51.252;9.830;2023-09-30T09:27:34;9.90;;;2.50;;
44832;SDS011;30569;51.252;9.830;2023-09-30T09:30:45;7.97;;;2.05;;
44832;SDS011;30569;51.252;9.830;2023-09-30T09:35:20;12.20;;;2.53;;
44832;SDS011;30569;51.252;9.830;2023-09-30T09:38:20;8.48;;;2.30;;
44832;SDS011;30569;51.252;9.830;2023-09-30T09:40:38;7.78;;;2.00;;
44832;SDS011;30569;51.252;9.830;2023-09-30T09:43:05;6.97;;;2.00;;
44832;SDS011;30569;51.252;9.830;2023-09-30T09:45:35;7.40;;;2.25;;
44832;SDS011;30569;51.252;9.830;2023-09-30T09:48:02;7.47;;;2.00;;
44832;SDS011;30569;51.252;9.830;2023-09-30T09:50:30;8.05;;;2.30;;
44832;SDS011;30569;51.252;9.830;2023-09-30T09:52:58;7.00;;;2.17;;
44832;SDS011;30569;51.252;9.830;2023-09-30T09:55:25;5.47;;;1.83;;
44832;SDS011;30569;51.252;9.830;2023-09-30T09:57:52;8.93;;;2.70;;
44832;SDS011;30569;51.252;9.830;2023-09-30T10:00:19;9.20;;;2.17;;
44832;SDS011;30569;51.252;9.830;2023-09-30T10:02:49;9.52;;;2.60;;
44832;SDS011;30569;51.252;9.830;2023-09-30T10:05:16;8.15;;;2.33;;
44832;SDS011;30569;51.252;9.830;2023-09-30T10:10:17;9.48;;;2.88;;
44832;SDS011;30569;51.252;9.830;2023-09-30T10:12:45;8.30;;;2.55;;
44832;SDS011;30569;51.252;9.830;2023-09-30T10:17:56;7.28;;;1.67;;
44832;SDS011;30569;51.252;9.830;2023-09-30T10:20:29;6.32;;;1.70;;
44832;SDS011;30569;51.252;9.830;2023-09-30T10:25:40;7.03;;;2.10;;
44832;SDS011;30569;51.252;9.830;2023-09-30T10:31:10;10.07;;;2.17;;
44832;SDS011;30569;51.252;9.830;2023-09-30T10:36:33;7.70;;;2.85;;
44832;SDS011;30569;51.252;9.830;2023-09-30T10:38:59;8.48;;;2.45;;
44832;SDS011;30569;51.252;9.830;2023-09-30T10:46:49;7.70;;;1.85;;
44832;SDS011;30569;51.252;9.830;2023-09-30T10:49:36;9.60;;;2.30;;
44832;SDS011;30569;51.252;9.830;2023-09-30T10:52:03;5.75;;;1.67;;
44832;SDS011;30569;51.252;9.830;2023-09-30T10:54:30;10.40;;;1.92;;
44832;SDS011;30569;51.252;9.830;2023-09-30T10:56:56;8.27;;;2.20;;
44832;SDS011;30569;51.252;9.830;2023-09-30T10:59:30;10.25;;;2.08;;
44832;SDS011;30569;51.252;9.830;2023-09-30T11:01:56;6.05;;;1.70;;
44832;SDS011;30569;51.252;9.830;2023-09-30T11:04:22;12.52;;;1.90;;
44832;SDS011;30569;51.252;9.830;2023-09-30T11:06:48;9.45;;;2.38;;
44832;SDS011;30569;51.252;9.830;2023-09-30T11:09:17;15.57;;;4.50;;
44832;SDS011;30569;51.252;9.830;2023-09-30T11:11:45;9.63;;;2.92;;
44832;SDS011;30569;51.252;9.830;2023-09-30T11:16:55;7.53;;;2.15;;
44832;SDS011;30569;51.252;9.830;2023-09-30T11:19:22;5.75;;;2.08;;
44832;SDS011;30569;51.252;9.830;2023-09-30T11:21:49;7.13;;;2.15;;
44832;SDS011;30569;51.252;9.830;2023-09-30T11:24:16;9.38;;;1.60;;
